createdAt,value
2023-03-05T00:01:33.696Z,63.29
2023-03-05T00:04:03.797Z,63.72
2023-03-05T00:06:32.997Z,62.26
2023-03-05T00:09:01.709Z,58.92
2023-03-05T00:11:30.789Z,53.45
2023-03-05T00:14:00.074Z,52.68
2023-03-05T00:16:29.573Z,51.98
2023-03-05T00:19:00.917Z,53.34
2023-03-05T00:21:35.027Z,52.98
2023-03-05T00:24:05.964Z,53.31
2023-03-05T00:26:36.799Z,54.40
2023-03-05T00:29:05.890Z,54.84
2023-03-05T00:31:36.011Z,54.57
2023-03-05T00:34:06.869Z,54.98
2023-03-05T00:36:36.862Z,57.62
2023-03-05T00:39:05.033Z,57.78
2023-03-05T00:41:33.838Z,57.67
2023-03-05T00:44:02.197Z,58.70
2023-03-05T00:46:30.469Z,57.97
2023-03-05T00:48:58.644Z,57.90
2023-03-05T00:51:27.124Z,57.51
2023-03-05T00:53:55.825Z,58.01
2023-03-05T00:56:24.509Z,58.37
2023-03-05T00:58:53.588Z,59.06
2023-03-05T01:01:21.918Z,59.22
2023-03-05T01:03:50.538Z,59.21
2023-03-05T01:06:18.931Z,60.66
2023-03-05T01:08:47.186Z,60.37
2023-03-05T01:11:15.454Z,64.92
2023-03-05T01:13:43.828Z,71.91
2023-03-05T01:16:12.027Z,69.51
2023-03-05T01:18:42.017Z,66.32
2023-03-05T01:21:10.900Z,61.09
2023-03-05T01:23:39.072Z,55.53
2023-03-05T01:26:08.745Z,51.86
2023-03-05T01:28:38.578Z,50.73
2023-03-05T01:31:08.922Z,50.92
2023-03-05T01:33:37.695Z,51.79
2023-03-05T01:36:13.549Z,52.32
2023-03-05T01:38:43.308Z,52.69
2023-03-05T01:41:12.651Z,54.07
2023-03-05T01:43:41.657Z,54.45
2023-03-05T01:46:30.099Z,55.05
2023-03-05T01:49:01.362Z,55.02
2023-03-05T01:51:51.659Z,55.98
2023-03-05T01:54:21.750Z,56.88
2023-03-05T01:56:51.048Z,58.06
2023-03-05T01:59:20.041Z,58.65
2023-03-05T02:01:51.490Z,59.12
2023-03-05T02:04:22.124Z,59.96
2023-03-05T02:06:50.698Z,60.39
2023-03-05T02:09:23.583Z,61.18
2023-03-05T02:11:52.063Z,64.24
2023-03-05T02:14:21.269Z,69.34
2023-03-05T02:16:49.478Z,68.29
2023-03-05T02:19:17.914Z,64.23
2023-03-05T02:21:48.369Z,62.64
2023-03-05T02:24:20.092Z,58.53
2023-03-05T02:26:48.265Z,55.38
2023-03-05T02:29:19.511Z,55.52
2023-03-05T02:31:47.811Z,55.93
2023-03-05T02:34:16.171Z,56.85
2023-03-05T02:36:44.463Z,57.30
2023-03-05T02:39:13.119Z,58.18
2023-03-05T02:41:41.293Z,59.56
2023-03-05T02:44:09.873Z,60.39
2023-03-05T02:46:38.252Z,63.67
2023-03-05T02:49:06.529Z,69.57
2023-03-05T02:51:34.906Z,67.97
2023-03-05T02:54:03.077Z,65.37
2023-03-05T02:56:31.966Z,63.51
2023-03-05T02:59:01.786Z,62.34
2023-03-05T03:01:30.729Z,58.04
2023-03-05T03:03:59.449Z,54.25
2023-03-05T03:06:27.533Z,54.14
2023-03-05T03:08:55.805Z,55.06
2023-03-05T03:11:23.967Z,56.00
2023-03-05T03:13:52.149Z,57.55
2023-03-05T03:16:20.366Z,58.39
2023-03-05T03:18:49.113Z,59.12
2023-03-05T03:21:20.062Z,59.79
2023-03-05T03:23:48.224Z,62.92
2023-03-05T03:26:16.897Z,67.16
2023-03-05T03:28:45.683Z,66.17
2023-03-05T03:31:13.776Z,65.62
2023-03-05T03:33:42.035Z,65.17
2023-03-05T03:36:10.906Z,61.94
2023-03-05T03:38:39.094Z,58.39
2023-03-05T03:41:08.184Z,54.24
2023-03-05T03:43:36.877Z,53.98
2023-03-05T03:46:07.322Z,54.92
2023-03-05T03:48:36.260Z,55.52
2023-03-05T03:51:06.524Z,56.80
2023-03-05T03:53:34.980Z,57.49
2023-03-05T03:56:03.667Z,58.37
2023-03-05T03:58:32.772Z,60.19
2023-03-05T04:01:00.940Z,63.90
2023-03-05T04:03:29.209Z,68.53
2023-03-05T04:05:57.387Z,64.85
2023-03-05T04:08:25.656Z,61.27
2023-03-05T04:10:53.832Z,57.16
2023-03-05T04:13:22.003Z,54.02
2023-03-05T04:15:50.685Z,53.88
2023-03-05T04:18:18.964Z,56.16
2023-03-05T04:20:47.232Z,57.47
2023-03-05T04:23:15.716Z,58.34
2023-03-05T04:25:44.194Z,59.98
2023-03-05T04:28:12.670Z,63.94
2023-03-05T04:30:40.847Z,67.55
2023-03-05T04:33:09.121Z,66.96
2023-03-05T04:35:37.725Z,63.26
2023-03-05T04:38:05.970Z,62.45
2023-03-05T04:40:34.552Z,59.08
2023-03-05T04:43:03.925Z,56.12
2023-03-05T04:45:32.431Z,57.33
2023-03-05T04:48:00.813Z,57.91
2023-03-05T04:50:28.991Z,59.28
2023-03-05T04:52:57.268Z,63.38
2023-03-05T04:55:25.424Z,66.63
2023-03-05T04:57:53.703Z,66.90
2023-03-05T05:00:23.183Z,69.60
2023-03-05T05:02:52.470Z,67.14
2023-03-05T05:05:24.786Z,65.55
2023-03-05T05:07:57.146Z,64.30
2023-03-05T05:10:26.666Z,62.18
2023-03-05T05:12:54.831Z,63.09
2023-03-05T05:15:23.120Z,61.74
2023-03-05T05:17:51.265Z,58.00
2023-03-05T05:20:20.238Z,55.21
2023-03-05T05:22:48.436Z,55.82
2023-03-05T05:25:16.707Z,57.16
2023-03-05T05:27:44.884Z,59.37
2023-03-05T05:30:13.562Z,62.93
2023-03-05T05:32:41.796Z,67.92
2023-03-05T05:35:10.716Z,68.64
2023-03-05T05:37:38.907Z,67.26
2023-03-05T05:40:08.520Z,66.99
2023-03-05T05:42:36.796Z,66.85
2023-03-05T05:45:06.094Z,65.05
2023-03-05T05:47:34.358Z,63.20
2023-03-05T05:50:02.530Z,61.90
2023-03-05T05:52:30.804Z,58.41
2023-03-05T05:54:58.857Z,55.89
2023-03-05T05:57:27.051Z,57.89
2023-03-05T05:59:55.214Z,59.05
2023-03-05T06:02:23.599Z,63.47
2023-03-05T06:04:52.075Z,67.23
2023-03-05T06:07:20.152Z,64.89
2023-03-05T06:09:48.929Z,64.19
2023-03-05T06:12:17.204Z,63.22
2023-03-05T06:14:45.385Z,61.02
2023-03-05T06:17:21.842Z,57.42
2023-03-05T06:19:55.536Z,55.81
2023-03-05T06:22:23.715Z,58.47
2023-03-05T06:24:51.903Z,60.28
2023-03-05T06:27:20.176Z,64.50
2023-03-05T06:29:48.308Z,66.58
2023-03-05T06:32:16.401Z,63.16
2023-03-05T06:34:44.686Z,61.69
2023-03-05T06:37:12.874Z,60.40
2023-03-05T06:39:41.027Z,57.01
2023-03-05T06:42:10.342Z,55.31
2023-03-05T06:44:40.522Z,58.37
2023-03-05T06:47:10.671Z,59.43
2023-03-05T06:49:39.651Z,60.71
2023-03-05T06:52:10.280Z,63.17
2023-03-05T06:54:38.351Z,64.85
2023-03-05T06:57:06.525Z,62.02
2023-03-05T06:59:34.697Z,57.84
2023-03-05T07:02:02.936Z,56.29
2023-03-05T07:04:31.360Z,57.13
2023-03-05T07:07:00.766Z,58.73
2023-03-05T07:09:29.329Z,59.65
2023-03-05T07:11:57.709Z,60.05
2023-03-05T07:14:25.997Z,63.46
2023-03-05T07:16:54.097Z,64.49
2023-03-05T07:19:22.327Z,60.31
2023-03-05T07:21:50.499Z,55.87
2023-03-05T07:24:18.568Z,54.40
2023-03-05T07:26:48.830Z,54.97
2023-03-05T07:29:17.167Z,56.37
2023-03-05T07:31:45.261Z,58.26
2023-03-05T07:34:13.415Z,58.78
2023-03-05T07:36:43.223Z,58.44
2023-03-05T07:39:12.822Z,60.00
2023-03-05T07:41:40.920Z,60.55
2023-03-05T07:44:10.204Z,61.23
2023-03-05T07:46:38.422Z,64.94
2023-03-05T07:49:06.640Z,67.67
2023-03-05T07:51:35.017Z,64.45
2023-03-05T07:54:03.395Z,56.15
2023-03-05T07:56:35.568Z,54.43
2023-03-05T07:59:09.057Z,54.64
2023-03-05T08:01:37.849Z,55.32
2023-03-05T08:04:07.484Z,57.56
2023-03-05T08:06:35.742Z,59.46
2023-03-05T08:09:04.110Z,59.21
2023-03-05T08:11:32.486Z,62.54
2023-03-05T08:14:01.174Z,66.45
2023-03-05T08:16:29.479Z,65.28
2023-03-05T08:18:58.849Z,61.00
2023-03-05T08:21:33.923Z,56.30
2023-03-05T08:24:04.709Z,54.33
2023-03-05T08:26:34.973Z,55.63
2023-03-05T08:29:03.627Z,56.48
2023-03-05T08:31:32.356Z,56.96
2023-03-05T08:34:02.003Z,60.22
2023-03-05T08:36:30.682Z,63.31
2023-03-05T08:38:59.884Z,65.72
2023-03-05T08:41:28.289Z,63.65
2023-03-05T08:43:56.640Z,60.44
2023-03-05T08:46:25.308Z,58.59
2023-03-05T08:48:53.912Z,57.65
2023-03-05T08:51:25.978Z,59.28
2023-03-05T08:53:55.978Z,62.06
2023-03-05T08:56:25.589Z,65.62
2023-03-05T08:58:53.775Z,67.76
2023-03-05T09:01:22.964Z,64.84
2023-03-05T09:03:51.450Z,62.46
2023-03-05T09:06:19.712Z,59.69
2023-03-05T09:08:47.882Z,56.68
2023-03-05T09:11:16.260Z,56.33
2023-03-05T09:13:44.549Z,57.68
2023-03-05T09:16:16.028Z,59.43
2023-03-05T09:18:44.904Z,60.83
2023-03-05T09:21:16.081Z,63.77
2023-03-05T09:23:45.221Z,64.55
2023-03-05T09:26:15.936Z,61.84
2023-03-05T09:28:44.115Z,58.48
2023-03-05T09:31:12.904Z,56.74
2023-03-05T09:33:41.688Z,58.27
2023-03-05T09:36:19.873Z,59.03
2023-03-05T09:38:48.490Z,59.49
2023-03-05T09:41:34.678Z,61.03
2023-03-05T09:44:18.508Z,62.35
2023-03-05T09:46:55.268Z,62.75
2023-03-05T09:49:44.345Z,62.08
2023-03-05T09:52:21.019Z,61.36
2023-03-05T09:54:58.506Z,56.56
2023-03-05T09:57:36.816Z,54.48
2023-03-05T10:00:34.811Z,54.71
2023-03-05T10:03:06.800Z,55.91
2023-03-05T10:05:59.911Z,56.29
2023-03-05T10:08:33.720Z,57.14
2023-03-05T10:11:03.624Z,57.61
2023-03-05T10:13:39.785Z,58.31
2023-03-05T10:16:23.276Z,58.67
2023-03-05T10:19:08.078Z,59.13
2023-03-05T10:22:03.277Z,59.01
2023-03-05T10:24:31.455Z,59.69
2023-03-05T10:27:14.701Z,59.69
2023-03-05T10:29:58.215Z,60.06
2023-03-05T10:33:03.964Z,60.55
2023-03-05T10:35:57.693Z,65.98
2023-03-05T10:39:00.117Z,69.32
2023-03-05T10:41:40.573Z,68.47
2023-03-05T10:44:15.910Z,65.61
2023-03-05T10:46:45.109Z,56.83
2023-03-05T10:49:29.973Z,49.65
2023-03-05T10:52:05.618Z,48.21
2023-03-05T10:54:36.027Z,48.23
2023-03-05T10:57:05.346Z,48.88
2023-03-05T10:59:33.527Z,49.29
2023-03-05T11:02:08.956Z,50.06
2023-03-05T11:04:39.499Z,51.36
2023-03-05T11:07:16.464Z,52.62
2023-03-05T11:10:04.229Z,53.38
2023-03-05T11:12:35.040Z,55.31
2023-03-05T11:15:09.252Z,57.62
2023-03-05T11:17:48.090Z,58.10
2023-03-05T11:20:29.042Z,66.43
2023-03-05T11:23:16.251Z,67.04
2023-03-05T11:26:13.713Z,62.28
2023-03-05T11:28:57.537Z,58.65
2023-03-05T11:31:31.553Z,55.14
2023-03-05T11:34:09.862Z,55.30
2023-03-05T11:36:40.498Z,56.60
2023-03-05T11:39:08.462Z,56.88
2023-03-05T11:41:40.637Z,58.12
2023-03-05T11:44:15.757Z,58.74
2023-03-05T11:46:47.551Z,60.57
2023-03-05T11:49:20.334Z,64.15
2023-03-05T11:52:00.560Z,64.18
2023-03-05T11:54:37.125Z,54.74
2023-03-05T11:57:06.531Z,53.12
2023-03-05T11:59:36.149Z,54.72
2023-03-05T12:02:14.671Z,54.18
2023-03-05T12:04:43.033Z,55.30
2023-03-05T12:07:14.172Z,56.39
2023-03-05T12:09:51.977Z,57.12
2023-03-05T12:13:05.379Z,57.19
2023-03-05T12:16:04.654Z,57.50
2023-03-05T12:18:39.033Z,57.49
2023-03-05T12:21:27.366Z,56.97
2023-03-05T12:24:01.904Z,56.90
2023-03-05T12:27:04.765Z,57.14
2023-03-05T12:29:33.181Z,56.78
2023-03-05T12:32:01.791Z,57.06
2023-03-05T12:34:42.928Z,57.26
2023-03-05T12:37:13.337Z,57.10
2023-03-05T12:39:49.685Z,57.59
2023-03-05T12:42:30.200Z,58.46
2023-03-05T12:45:37.974Z,58.54
2023-03-05T12:48:10.942Z,58.62
2023-03-05T12:50:39.632Z,58.79
2023-03-05T12:53:13.030Z,58.51
2023-03-05T12:55:58.605Z,58.70
2023-03-05T12:59:05.057Z,58.86
2023-03-05T13:01:43.557Z,57.56
2023-03-05T13:04:21.906Z,57.30
2023-03-05T13:07:04.703Z,57.86
2023-03-05T13:09:36.470Z,58.62
2023-03-05T13:12:06.717Z,58.82
2023-03-05T13:14:49.497Z,58.37
2023-03-05T13:17:31.801Z,58.92
2023-03-05T13:20:01.610Z,60.08
2023-03-05T13:22:31.318Z,60.72
2023-03-05T13:25:20.705Z,61.00
2023-03-05T13:27:48.859Z,61.30
2023-03-05T13:30:22.966Z,61.07
2023-03-05T13:32:52.791Z,61.08
2023-03-05T13:35:21.390Z,61.43
2023-03-05T13:37:49.942Z,61.03
2023-03-05T13:40:26.823Z,61.55
2023-03-05T13:42:55.894Z,61.34
2023-03-05T13:45:24.259Z,61.28
2023-03-05T13:48:00.970Z,61.49
2023-03-05T13:50:31.920Z,61.39
2023-03-05T13:53:30.695Z,61.07
2023-03-05T13:56:06.168Z,60.74
2023-03-05T13:58:53.987Z,60.61
2023-03-05T14:01:40.875Z,60.56
2023-03-05T14:04:20.139Z,60.14
2023-03-05T14:06:59.850Z,59.79
2023-03-05T14:09:30.822Z,59.74
2023-03-05T14:12:05.724Z,58.83
2023-03-05T14:14:38.506Z,57.84
2023-03-05T14:17:34.728Z,58.66
2023-03-05T14:20:27.492Z,58.20
2023-03-05T14:22:59.679Z,58.24
2023-03-05T14:25:40.002Z,57.96
2023-03-05T14:28:17.307Z,57.47
2023-03-05T14:30:47.699Z,57.73
2023-03-05T14:33:23.523Z,57.49
2023-03-05T14:35:52.534Z,57.55
2023-03-05T14:38:24.983Z,58.31
2023-03-05T14:40:53.418Z,58.20
2023-03-05T14:43:21.882Z,58.17
2023-03-05T14:45:50.087Z,59.08
2023-03-05T14:48:19.354Z,59.60
2023-03-05T14:50:56.346Z,59.10
2023-03-05T14:53:28.894Z,58.04
2023-03-05T14:55:57.192Z,58.90
2023-03-05T14:58:29.973Z,59.48
2023-03-05T15:00:59.270Z,59.63
2023-03-05T15:03:28.200Z,60.33
2023-03-05T15:05:57.661Z,59.93
2023-03-05T15:08:28.406Z,60.23
2023-03-05T15:10:57.483Z,60.87
2023-03-05T15:13:26.475Z,61.17
2023-03-05T15:15:55.232Z,61.61
2023-03-05T15:18:24.049Z,65.24
2023-03-05T15:20:53.272Z,70.80
2023-03-05T15:23:21.625Z,70.39
2023-03-05T15:25:50.313Z,67.71
2023-03-05T15:28:19.005Z,62.31
2023-03-05T15:30:47.739Z,58.19
2023-03-05T15:33:17.488Z,54.44
2023-03-05T15:35:45.795Z,53.77
2023-03-05T15:38:15.462Z,54.89
2023-03-05T15:40:44.455Z,55.81
2023-03-05T15:43:13.037Z,56.83
2023-03-05T15:45:41.413Z,58.16
2023-03-05T15:48:09.800Z,59.28
2023-03-05T15:50:43.033Z,60.21
2023-03-05T15:53:13.501Z,65.71
2023-03-05T15:55:43.833Z,71.59
2023-03-05T15:58:17.438Z,71.34
2023-03-05T16:00:47.629Z,70.91
2023-03-05T16:03:16.176Z,68.17
2023-03-05T16:05:44.611Z,65.74
2023-03-05T16:08:13.088Z,59.47
2023-03-05T16:10:41.381Z,54.53
2023-03-05T16:13:12.716Z,54.28
2023-03-05T16:15:41.606Z,55.30
2023-03-05T16:18:12.953Z,56.48
2023-03-05T16:20:41.330Z,58.43
2023-03-05T16:23:09.602Z,59.27
2023-03-05T16:25:38.292Z,64.54
2023-03-05T16:28:06.878Z,69.25
2023-03-05T16:30:35.453Z,68.27
2023-03-05T16:33:03.833Z,66.78
2023-03-05T16:35:32.957Z,65.95
2023-03-05T16:38:01.717Z,64.67
2023-03-05T16:40:51.381Z,58.43
2023-03-05T16:43:18.550Z,55.57
2023-03-05T16:45:46.708Z,55.79
2023-03-05T16:48:14.777Z,56.34
2023-03-05T16:50:42.952Z,58.26
2023-03-05T16:53:11.122Z,59.46
2023-03-05T16:55:39.601Z,63.49
2023-03-05T16:58:08.083Z,69.22
2023-03-05T17:00:36.307Z,68.65
2023-03-05T17:03:04.533Z,67.43
2023-03-05T17:05:36.189Z,65.48
2023-03-05T17:08:05.170Z,64.24
2023-03-05T17:10:33.864Z,59.26
2023-03-05T17:13:02.063Z,54.94
2023-03-05T17:15:30.409Z,54.15
2023-03-05T17:17:58.678Z,54.74
2023-03-05T17:20:27.778Z,55.60
2023-03-05T17:22:55.943Z,56.74
2023-03-05T17:25:24.115Z,57.79
2023-03-05T17:27:52.523Z,58.98
2023-03-05T17:30:20.877Z,63.69
2023-03-05T17:32:52.625Z,69.45
2023-03-05T17:35:22.171Z,68.17
2023-03-05T17:37:51.738Z,66.13
2023-03-05T17:40:20.118Z,64.87
2023-03-05T17:42:48.187Z,63.51
2023-03-05T17:45:17.072Z,59.54
2023-03-05T17:47:45.244Z,55.29
2023-03-05T17:50:14.644Z,54.78
2023-03-05T17:52:42.817Z,55.25
2023-03-05T17:55:12.829Z,56.30
2023-03-05T17:57:42.655Z,57.25
2023-03-05T18:00:16.442Z,58.33
2023-03-05T18:02:45.037Z,59.32
2023-03-05T18:05:14.123Z,63.39
2023-03-05T18:07:42.501Z,68.25
2023-03-05T18:10:11.799Z,68.47
2023-03-05T18:12:40.488Z,68.18
2023-03-05T18:15:10.956Z,67.15
2023-03-05T18:17:39.701Z,65.47
2023-03-05T18:20:10.099Z,63.53
2023-03-05T18:22:38.194Z,59.37
2023-03-05T18:25:06.977Z,55.44
2023-03-05T18:27:35.457Z,55.08
2023-03-05T18:30:04.124Z,55.83
2023-03-05T18:32:32.237Z,56.68
2023-03-05T18:35:00.378Z,57.54
2023-03-05T18:37:28.557Z,58.92
2023-03-05T18:39:58.186Z,60.01
2023-03-05T18:42:26.434Z,63.98
2023-03-05T18:44:56.549Z,69.67
2023-03-05T18:47:24.731Z,69.12
2023-03-05T18:49:53.407Z,66.76
2023-03-05T18:52:21.576Z,66.83
2023-03-05T18:54:49.752Z,64.85
2023-03-05T18:57:17.925Z,59.25
2023-03-05T18:59:46.094Z,54.43
2023-03-05T19:02:15.597Z,54.19
2023-03-05T19:04:43.879Z,54.84
2023-03-05T19:07:12.179Z,55.92
2023-03-05T19:10:02.453Z,56.70
2023-03-05T19:12:35.375Z,57.08
2023-03-05T19:15:05.693Z,58.45
2023-03-05T19:17:34.128Z,63.88
2023-03-05T19:20:06.600Z,69.10
2023-03-05T19:22:34.885Z,69.71
2023-03-05T19:25:03.881Z,67.09
2023-03-05T19:27:32.036Z,63.93
2023-03-05T19:30:00.618Z,58.69
2023-03-05T19:32:29.343Z,53.71
2023-03-05T19:34:58.415Z,52.90
2023-03-05T19:37:27.387Z,53.73
2023-03-05T19:39:55.766Z,54.86
2023-03-05T19:42:23.934Z,55.83
2023-03-05T19:44:52.112Z,57.21
2023-03-05T19:47:20.482Z,58.11
2023-03-05T19:49:48.657Z,59.23
2023-03-05T19:52:16.930Z,63.24
2023-03-05T19:54:45.106Z,67.55
2023-03-05T19:57:13.274Z,67.17
2023-03-05T19:59:41.649Z,66.38
2023-03-05T20:02:12.176Z,64.91
2023-03-05T20:04:40.347Z,63.59
2023-03-05T20:07:10.569Z,64.65
2023-03-05T20:09:38.761Z,63.20
2023-03-05T20:12:08.043Z,62.40
2023-03-05T20:14:36.537Z,61.84
2023-03-05T20:17:04.753Z,61.23
2023-03-05T20:19:32.974Z,60.54
2023-03-05T20:22:01.141Z,58.68
2023-03-05T20:24:29.314Z,55.93
2023-03-05T20:26:57.600Z,55.82
2023-03-05T20:29:25.686Z,56.94
2023-03-05T20:31:56.489Z,57.96
2023-03-05T20:34:25.278Z,58.95
2023-03-05T20:36:53.456Z,63.78
2023-03-05T20:39:21.727Z,69.80
2023-03-05T20:41:51.444Z,68.13
2023-03-05T20:44:19.608Z,66.71
2023-03-05T20:47:02.815Z,63.37
2023-03-05T20:49:31.109Z,61.77
2023-03-05T20:51:59.187Z,61.20
2023-03-05T20:54:28.312Z,62.71
2023-03-05T20:56:56.548Z,58.48
2023-03-05T20:59:24.921Z,54.88
2023-03-05T21:01:53.111Z,54.80
2023-03-05T21:04:21.372Z,55.56
2023-03-05T21:06:52.806Z,56.35
2023-03-05T21:09:20.997Z,57.57
2023-03-05T21:11:49.166Z,58.85
2023-03-05T21:14:17.656Z,62.10
2023-03-05T21:16:45.867Z,67.35
2023-03-05T21:19:14.198Z,67.43
2023-03-05T21:21:45.772Z,65.79
2023-03-05T21:24:14.226Z,64.95
2023-03-05T21:26:42.397Z,65.12
2023-03-05T21:29:10.568Z,64.28
2023-03-05T21:31:38.679Z,64.04
2023-03-05T21:34:07.016Z,63.85
2023-03-05T21:36:35.392Z,61.81
2023-03-05T21:39:03.568Z,57.70
2023-03-05T21:41:31.738Z,54.41
2023-03-05T21:44:04.166Z,54.54
2023-03-05T21:46:32.489Z,55.00
2023-03-05T21:49:00.660Z,56.09
2023-03-05T21:51:38.671Z,56.88
2023-03-05T21:54:07.344Z,57.69
2023-03-05T21:56:35.830Z,59.00
2023-03-05T21:59:04.093Z,62.52
2023-03-05T22:01:32.333Z,68.92
2023-03-05T22:04:00.684Z,68.06
2023-03-05T22:06:28.921Z,66.48
2023-03-05T22:08:57.092Z,64.03
2023-03-05T22:11:25.362Z,63.68
2023-03-05T22:13:53.430Z,63.57
2023-03-05T22:16:26.227Z,59.40
2023-03-05T22:18:54.911Z,54.09
2023-03-05T22:21:26.624Z,54.00
2023-03-05T22:23:57.368Z,54.41
2023-03-05T22:26:26.208Z,55.14
2023-03-05T22:28:54.341Z,53.37
2023-03-05T22:31:24.047Z,56.65
2023-03-05T22:33:53.255Z,58.09
2023-03-05T22:36:21.620Z,59.43
2023-03-05T22:38:49.806Z,63.10
2023-03-05T22:41:20.007Z,68.50
2023-03-05T22:43:49.619Z,68.45
2023-03-05T22:46:21.035Z,66.89
2023-03-05T22:48:49.547Z,64.85
2023-03-05T22:51:18.820Z,64.71
2023-03-05T22:53:47.427Z,64.10
2023-03-05T22:56:18.154Z,62.81
2023-03-05T22:58:46.451Z,60.89
2023-03-05T23:01:16.534Z,60.84
2023-03-05T23:03:44.843Z,58.43
2023-03-05T23:06:13.218Z,56.50
2023-03-05T23:08:41.395Z,56.49
2023-03-05T23:11:11.704Z,57.58
2023-03-05T23:13:40.904Z,58.37
2023-03-05T23:16:10.005Z,59.23
2023-03-05T23:18:38.379Z,62.07
2023-03-05T23:21:06.769Z,65.72
2023-03-05T23:23:34.928Z,68.55
2023-03-05T23:26:03.220Z,70.11
2023-03-05T23:28:31.373Z,67.92
2023-03-05T23:30:59.565Z,66.25
2023-03-05T23:33:27.725Z,64.57
2023-03-05T23:35:58.212Z,64.16
2023-03-05T23:38:28.565Z,63.70
2023-03-05T23:41:00.697Z,62.56
2023-03-05T23:43:30.028Z,62.14
2023-03-05T23:45:58.466Z,58.87
2023-03-05T23:48:27.660Z,55.21
2023-03-05T23:50:56.384Z,55.15
2023-03-05T23:53:27.737Z,56.27
2023-03-05T23:55:56.218Z,57.29
2023-03-05T23:58:24.403Z,58.59
